Time;durP1;ratioP1;P1;durP2;ratioP2;P2;SDS_P1;SDS_P2;PMS_P1;PMS_P2;Temp;Humidity;BMP_temperature;BMP_pressure;BME280_temperature;BME280_humidity;BME280_pressure;Samples;Min_cycle;Max_cycle;Signal;HPM_P1;HPM_P2
2022/06/22 00:02:16;;;;;;;0.20;0.20;;;12.50;99.90;;;;;;5059481;28;20558;-88
2022/06/22 00:04:46;;;;;;;0.10;0.10;;;12.50;99.90;;;;;;5051834;28;20497;-88
2022/06/22 00:07:21;;;;;;;0.10;0.10;;;12.40;99.90;;;;;;5056812;28;20481;-87
2022/06/22 00:09:51;;;;;;;0.20;0.20;;;12.50;99.90;;;;;;5066534;28;21026;-87
2022/06/22 00:12:24;;;;;;;0.10;0.10;;;12.60;99.90;;;;;;5065348;28;20443;-87
2022/06/22 00:14:52;;;;;;;0.20;0.20;;;12.50;99.90;;;;;;5049474;28;20964;-87
2022/06/22 00:17:32;;;;;;;0.10;0.10;;;12.50;99.90;;;;;;5056555;28;20446;-88
2022/06/22 00:20:08;;;;;;;0.10;0.10;;;12.40;99.90;;;;;;5048546;28;20437;-87
2022/06/22 00:22:52;;;;;;;0.20;0.20;;;12.40;99.90;;;;;;5036817;28;20444;-87
2022/06/22 00:25:32;;;;;;;0.20;0.20;;;12.40;99.90;;;;;;5049637;28;20975;-88
2022/06/22 00:28:24;;;;;;;0.10;0.10;;;12.30;99.90;;;;;;5037523;28;21040;-88
2022/06/22 00:30:49;;;;;;;0.20;0.20;;;12.30;99.90;;;;;;5045444;28;20445;-88
2022/06/22 00:33:23;;;;;;;0.10;0.10;;;12.30;99.90;;;;;;5055077;28;20456;-87
2022/06/22 00:36:12;;;;;;;0.20;0.20;;;12.40;99.90;;;;;;5052989;28;20210;-87
2022/06/22 00:38:38;;;;;;;0.20;0.20;;;12.40;99.90;;;;;;5052731;28;20467;-87
2022/06/22 00:41:21;;;;;;;0.20;0.20;;;12.30;99.90;;;;;;5039882;28;20439;-87
2022/06/22 00:43:47;;;;;;;0.10;0.10;;;12.10;99.90;;;;;;5053240;28;20452;-87
2022/06/22 00:46:21;;;;;;;0.20;0.20;;;12.10;99.90;;;;;;5052063;28;20474;-87
2022/06/22 00:48:51;;;;;;;0.10;0.10;;;12.00;99.90;;;;;;5051308;28;20861;-87
2022/06/22 00:51:29;;;;;;;0.20;0.20;;;11.90;99.90;;;;;;5046867;28;20495;-87
2022/06/22 00:54:01;;;;;;;0.10;0.10;;;11.80;99.90;;;;;;5047095;28;20453;-87
2022/06/22 00:56:49;;;;;;;0.10;0.10;;;11.90;99.90;;;;;;5050125;28;20536;-87
2022/06/22 00:59:20;;;;;;;0.20;0.20;;;12.00;99.90;;;;;;5058803;28;20457;-86
2022/06/22 01:02:00;;;;;;;0.10;0.10;;;11.90;99.90;;;;;;5054818;28;20951;-87
2022/06/22 01:04:51;;;;;;;0.20;0.20;;;11.80;99.90;;;;;;5057485;28;20453;-87
2022/06/22 01:07:41;;;;;;;0.10;0.10;;;11.70;99.90;;;;;;5060977;28;20491;-87
2022/06/22 01:10:28;;;;;;;0.20;0.20;;;11.80;99.90;;;;;;5046160;28;20453;-87
2022/06/22 01:13:03;;;;;;;0.20;0.20;;;11.90;99.90;;;;;;5056598;28;21020;-86
2022/06/22 01:15:39;;;;;;;0.10;0.10;;;12.00;99.90;;;;;;5044063;28;20471;-87
2022/06/22 01:18:13;;;;;;;0.10;0.10;;;12.00;99.90;;;;;;5050825;28;20437;-86
2022/06/22 01:20:57;;;;;;;0.20;0.20;;;11.80;99.90;;;;;;5064898;28;20532;-87
2022/06/22 01:23:36;;;;;;;0.20;0.20;;;11.60;99.90;;;;;;5043694;28;20445;-88
2022/06/22 01:26:16;;;;;;;0.20;0.20;;;11.70;99.90;;;;;;5056202;28;20477;-88
2022/06/22 01:28:51;;;;;;;0.20;0.20;;;11.90;99.90;;;;;;5035397;28;20953;-86
2022/06/22 01:31:17;;;;;;;0.20;0.20;;;11.70;99.90;;;;;;5034940;28;20950;-87
2022/06/22 01:33:47;;;;;;;0.10;0.10;;;11.60;99.90;;;;;;5048208;28;20480;-87
2022/06/22 01:36:29;;;;;;;0.10;0.10;;;11.50;99.90;;;;;;5048323;28;20189;-87
2022/06/22 01:38:54;;;;;;;0.20;0.20;;;11.50;99.90;;;;;;5052078;28;20544;-87
2022/06/22 01:41:38;;;;;;;0.20;0.20;;;11.50;99.90;;;;;;5048895;28;20532;-87
2022/06/22 01:44:25;;;;;;;0.10;0.10;;;11.50;99.90;;;;;;5047717;28;20323;-87
2022/06/22 01:46:50;;;;;;;0.20;0.20;;;11.60;99.90;;;;;;5047398;28;20854;-87
2022/06/22 01:49:25;;;;;;;0.10;0.10;;;11.60;99.90;;;;;;5043468;28;20437;-87
2022/06/22 01:52:01;;;;;;;0.10;0.10;;;11.60;99.90;;;;;;5053645;28;20198;-86
2022/06/22 01:54:32;;;;;;;0.20;0.20;;;11.60;99.90;;;;;;5047824;28;20442;-86
2022/06/22 01:57:09;;;;;;;0.20;0.20;;;11.70;99.90;;;;;;5051203;28;20995;-86
2022/06/22 01:59:51;;;;;;;0.20;0.20;;;11.70;99.90;;;;;;5044626;28;20442;-87
2022/06/22 02:02:26;;;;;;;0.20;0.20;;;11.80;99.90;;;;;;5041817;28;20457;-87
2022/06/22 02:05:12;;;;;;;0.20;0.20;;;11.80;99.90;;;;;;5038637;28;20501;-86
2022/06/22 02:07:46;;;;;;;0.10;0.10;;;11.80;99.90;;;;;;5049050;28;20546;-87
2022/06/22 02:10:33;;;;;;;0.20;0.20;;;11.90;99.90;;;;;;5054940;28;20940;-87
2022/06/22 02:13:20;;;;;;;0.10;0.10;;;12.10;99.90;;;;;;5045919;28;20903;-87
2022/06/22 02:16:09;;;;;;;0.20;0.20;;;12.20;99.90;;;;;;5043959;28;20440;-88
2022/06/22 02:18:46;;;;;;;0.20;0.20;;;12.30;99.90;;;;;;5049778;28;20547;-87
2022/06/22 02:21:19;;;;;;;0.20;0.20;;;12.30;99.90;;;;;;5051459;28;21071;-87
2022/06/22 02:23:50;;;;;;;0.20;0.20;;;12.40;99.90;;;;;;5048113;28;20603;-87
2022/06/22 02:26:22;;;;;;;0.20;0.20;;;12.40;99.90;;;;;;5051987;28;20477;-86
2022/06/22 02:28:49;;;;;;;0.20;0.20;;;12.40;99.90;;;;;;5042138;28;20525;-86
2022/06/22 02:31:17;;;;;;;0.10;0.10;;;12.40;99.90;;;;;;5039498;28;20473;-85
2022/06/22 02:33:47;;;;;;;0.10;0.10;;;12.60;99.90;;;;;;5047764;28;20459;-86
2022/06/22 02:36:14;;;;;;;0.17;0.17;;;12.50;99.90;;;;;;5047559;28;20988;-85
2022/06/22 02:38:42;;;;;;;0.10;0.10;;;12.60;99.90;;;;;;5049749;28;20441;-85
2022/06/22 02:46:40;;;;;;;0.10;0.10;;;12.60;99.90;;;;;;5044032;28;20512;-85
2022/06/22 02:49:12;;;;;;;0.10;0.10;;;12.60;99.90;;;;;;5061674;28;20533;-85
2022/06/22 02:51:45;;;;;;;0.10;0.10;;;12.60;99.90;;;;;;5048597;28;20453;-85
2022/06/22 02:54:24;;;;;;;0.17;0.17;;;12.80;99.90;;;;;;5055375;28;20513;-86
2022/06/22 02:56:58;;;;;;;0.10;0.10;;;12.80;99.90;;;;;;5052416;28;20502;-85
2022/06/22 02:59:24;;;;;;;0.10;0.10;;;12.80;99.90;;;;;;5060443;28;20728;-86
2022/06/22 03:01:49;;;;;;;0.10;0.10;;;12.90;99.90;;;;;;5053115;28;21009;-86
2022/06/22 03:04:16;;;;;;;0.10;0.10;;;12.90;99.90;;;;;;5052540;28;20186;-86
2022/06/22 03:06:48;;;;;;;0.10;0.10;;;12.80;99.90;;;;;;5041472;28;20704;-86
2022/06/22 03:09:15;;;;;;;0.20;0.20;;;12.80;99.90;;;;;;5031134;28;20483;-86
2022/06/22 03:11:47;;;;;;;0.10;0.10;;;12.80;99.90;;;;;;5054781;28;20436;-86
2022/06/22 03:14:22;;;;;;;0.10;0.10;;;12.90;99.90;;;;;;5035034;28;20442;-87
2022/06/22 03:16:54;;;;;;;0.10;0.10;;;12.90;99.90;;;;;;5050420;28;20451;-86
2022/06/22 03:19:25;;;;;;;0.10;0.10;;;12.80;99.90;;;;;;5070410;28;20423;-86
2022/06/22 03:21:51;;;;;;;0.20;0.20;;;12.70;99.90;;;;;;5048532;28;20471;-86
2022/06/22 03:24:42;;;;;;;0.10;0.10;;;12.80;99.90;;;;;;5050043;28;20921;-86
2022/06/22 03:27:19;;;;;;;0.10;0.10;;;12.70;99.90;;;;;;5036813;28;21192;-86
2022/06/22 03:29:53;;;;;;;0.20;0.20;;;12.80;99.90;;;;;;5061549;28;20456;-87
2022/06/22 03:32:39;;;;;;;0.20;0.20;;;12.70;99.90;;;;;;5055117;28;20447;-86
2022/06/22 03:35:13;;;;;;;0.10;0.10;;;12.70;99.90;;;;;;5048485;28;20480;-86
2022/06/22 03:37:53;;;;;;;0.10;0.10;;;12.70;99.90;;;;;;5055728;28;20816;-86
2022/06/22 03:40:32;;;;;;;0.10;0.10;;;12.80;99.90;;;;;;5052947;28;20442;-86
2022/06/22 03:43:09;;;;;;;0.10;0.10;;;12.90;99.90;;;;;;5060767;28;20448;-86
2022/06/22 03:45:42;;;;;;;0.10;0.10;;;12.90;99.90;;;;;;5042952;28;20435;-87
2022/06/22 03:48:16;;;;;;;0.10;0.10;;;12.90;99.90;;;;;;5057651;28;20457;-86
2022/06/22 03:50:46;;;;;;;0.10;0.10;;;12.90;99.90;;;;;;5058450;28;20443;-86
2022/06/22 03:53:19;;;;;;;0.10;0.10;;;13.10;99.90;;;;;;5061166;28;20428;-86
2022/06/22 03:55:50;;;;;;;0.10;0.10;;;13.20;99.90;;;;;;5053519;28;20481;-86
2022/06/22 03:58:18;;;;;;;0.10;0.10;;;13.20;99.90;;;;;;5048909;28;20440;-87
2022/06/22 04:00:46;;;;;;;0.10;0.10;;;13.20;99.90;;;;;;5049604;28;20622;-87
2022/06/22 04:03:14;;;;;;;0.10;0.10;;;13.10;99.90;;;;;;5057839;28;20985;-87
2022/06/22 04:05:45;;;;;;;0.10;0.10;;;13.20;99.90;;;;;;5057971;28;21065;-87
2022/06/22 04:08:20;;;;;;;0.10;0.10;;;13.20;99.90;;;;;;5053739;28;21030;-86
2022/06/22 04:10:52;;;;;;;0.10;0.10;;;13.20;99.90;;;;;;5053193;28;20450;-86
2022/06/22 04:13:28;;;;;;;0.10;0.10;;;13.20;99.90;;;;;;5053254;28;20453;-87
2022/06/22 04:16:24;;;;;;;0.10;0.10;;;13.20;99.90;;;;;;5081731;28;20559;-86
2022/06/22 04:19:00;;;;;;;0.10;0.10;;;13.20;99.90;;;;;;5059213;28;20445;-86
2022/06/22 04:21:36;;;;;;;0.10;0.10;;;13.10;99.90;;;;;;5051782;28;20478;-86
2022/06/22 04:24:20;;;;;;;0.10;0.10;;;13.30;99.90;;;;;;5039665;28;20444;-86
2022/06/22 04:26:53;;;;;;;0.10;0.10;;;13.30;99.90;;;;;;5033911;28;20485;-88
2022/06/22 04:29:32;;;;;;;0.10;0.10;;;13.30;99.90;;;;;;5055273;28;20451;-87
2022/06/22 04:32:01;;;;;;;0.10;0.10;;;13.40;99.90;;;;;;5064036;28;20850;-87
2022/06/22 04:34:32;;;;;;;0.10;0.10;;;13.40;99.90;;;;;;5058276;28;20425;-87
2022/06/22 04:36:59;;;;;;;0.10;0.10;;;13.40;99.90;;;;;;5053665;28;20540;-87
2022/06/22 04:39:36;;;;;;;0.10;0.10;;;13.40;99.90;;;;;;5050657;28;20465;-88
2022/06/22 04:42:04;;;;;;;0.10;0.10;;;13.50;99.90;;;;;;5046857;28;20527;-88
2022/06/22 04:44:42;;;;;;;0.10;0.10;;;13.40;99.90;;;;;;5055769;28;20521;-88
2022/06/22 04:47:24;;;;;;;0.10;0.10;;;13.50;99.90;;;;;;5053956;28;20492;-87
2022/06/22 04:49:54;;;;;;;0.10;0.10;;;13.50;99.90;;;;;;5051824;28;21135;-87
2022/06/22 04:52:54;;;;;;;0.10;0.10;;;13.60;99.90;;;;;;5054894;28;20453;-88
2022/06/22 04:55:24;;;;;;;0.10;0.10;;;13.50;99.90;;;;;;5026808;28;20457;-87
2022/06/22 04:57:53;;;;;;;0.10;0.10;;;13.50;99.90;;;;;;5039034;28;20949;-88
2022/06/22 05:00:26;;;;;;;0.10;0.10;;;13.40;99.90;;;;;;5080057;28;20509;-87
2022/06/22 05:03:03;;;;;;;0.10;0.10;;;13.50;99.90;;;;;;5043953;28;20443;-88
2022/06/22 05:05:34;;;;;;;0.10;0.10;;;13.40;99.90;;;;;;5055115;28;20783;-87
2022/06/22 05:08:16;;;;;;;0.10;0.10;;;13.30;99.90;;;;;;5049310;28;20453;-87
2022/06/22 05:10:50;;;;;;;0.10;0.10;;;13.40;99.90;;;;;;5045819;28;20452;-87
2022/06/22 05:13:33;;;;;;;0.10;0.10;;;13.50;99.90;;;;;;5046308;28;20446;-87
2022/06/22 05:16:03;;;;;;;0.10;0.10;;;13.70;99.90;;;;;;5051471;28;20803;-87
2022/06/22 05:18:34;;;;;;;0.10;0.10;;;13.80;99.90;;;;;;5047493;28;20434;-86
2022/06/22 05:21:28;;;;;;;0.10;0.10;;;13.80;99.90;;;;;;5053928;28;20417;-86
2022/06/22 05:23:56;;;;;;;0.10;0.10;;;13.90;99.90;;;;;;5051286;28;20456;-85
2022/06/22 05:26:24;;;;;;;0.10;0.10;;;13.90;99.90;;;;;;5076919;28;20476;-88
2022/06/22 05:29:14;;;;;;;0.10;0.10;;;13.90;99.90;;;;;;5046082;28;20445;-86
2022/06/22 05:31:52;;;;;;;0.10;0.10;;;13.90;99.90;;;;;;5060260;28;20527;-86
2022/06/22 05:34:22;;;;;;;0.10;0.10;;;13.80;99.90;;;;;;5044800;28;20437;-86
2022/06/22 05:36:56;;;;;;;0.10;0.10;;;14.00;99.90;;;;;;5081371;28;20538;-90
2022/06/22 05:39:23;;;;;;;0.10;0.10;;;13.90;99.90;;;;;;5032941;28;20429;-89
2022/06/22 05:41:49;;;;;;;0.10;0.10;;;14.00;99.90;;;;;;5057667;28;20454;-88
2022/06/22 05:44:18;;;;;;;0.10;0.10;;;13.90;99.90;;;;;;5050209;28;20445;-90
2022/06/22 05:46:56;;;;;;;0.10;0.10;;;14.10;99.90;;;;;;5059950;28;21023;-86
2022/06/22 05:49:28;;;;;;;0.10;0.10;;;14.20;99.90;;;;;;5052175;28;20445;-90
2022/06/22 05:52:09;;;;;;;0.10;0.10;;;14.30;99.90;;;;;;5060207;28;20495;-86
2022/06/22 05:54:40;;;;;;;0.10;0.10;;;14.30;99.90;;;;;;5039801;28;20517;-87
2022/06/22 05:57:15;;;;;;;0.10;0.10;;;14.10;99.90;;;;;;5037537;28;20442;-88
2022/06/22 05:59:53;;;;;;;0.10;0.10;;;14.30;99.90;;;;;;5035286;28;20536;-86
2022/06/22 06:03:04;;;;;;;0.10;0.10;;;14.30;99.90;;;;;;5044134;28;20448;-86
2022/06/22 06:05:41;;;;;;;0.10;0.10;;;14.40;99.90;;;;;;5019392;28;20474;-90
2022/06/22 06:08:25;;;;;;;0.10;0.10;;;14.70;99.90;;;;;;5025085;28;20464;-90
2022/06/22 06:10:51;;;;;;;0.10;0.10;;;14.60;99.90;;;;;;5037479;28;20437;-88
2022/06/22 06:13:19;;;;;;;0.10;0.10;;;14.60;99.90;;;;;;5047887;28;20445;-89
2022/06/22 06:15:47;;;;;;;0.10;0.10;;;14.60;99.90;;;;;;5060742;28;20437;-92
2022/06/22 06:18:22;;;;;;;0.10;0.10;;;14.60;99.90;;;;;;5052429;28;20425;-91
2022/06/22 06:20:54;;;;;;;0.10;0.10;;;14.70;99.90;;;;;;5050798;28;20441;-90
2022/06/22 06:23:34;;;;;;;0.10;0.10;;;14.80;99.90;;;;;;5049875;28;20481;-90
2022/06/22 06:29:11;;;;;;;0.10;0.10;;;14.90;99.90;;;;;;5035504;28;20546;-91
2022/06/22 06:31:43;;;;;;;0.10;0.10;;;15.10;99.90;;;;;;5037512;28;20445;-89
2022/06/22 06:34:18;;;;;;;0.10;0.10;;;15.30;99.90;;;;;;5044979;28;20464;-88
2022/06/22 06:37:02;;;;;;;0.10;0.10;;;15.30;99.90;;;;;;5044022;28;20551;-88
2022/06/22 06:39:32;;;;;;;0.10;0.10;;;15.30;99.90;;;;;;5046215;28;20477;-88
2022/06/22 06:42:04;;;;;;;0.10;0.10;;;15.40;99.90;;;;;;5049403;28;20441;-87
2022/06/22 06:44:42;;;;;;;0.10;0.10;;;15.40;99.90;;;;;;5077546;28;20448;-90
2022/06/22 06:47:35;;;;;;;0.10;0.10;;;15.60;99.90;;;;;;5053121;28;20569;-92
2022/06/22 06:50:15;;;;;;;0.10;0.10;;;15.70;99.90;;;;;;5056239;28;20440;-91
2022/06/22 06:53:05;;;;;;;0.10;0.10;;;15.60;99.90;;;;;;5050891;28;20457;-93
2022/06/22 06:55:39;;;;;;;0.10;0.10;;;15.50;99.90;;;;;;5047169;28;20460;-93
2022/06/22 06:58:31;;;;;;;0.10;0.10;;;15.30;99.90;;;;;;5046279;28;20454;-92
2022/06/22 07:00:57;;;;;;;0.10;0.10;;;15.30;99.90;;;;;;5059499;28;20480;-92
2022/06/22 07:03:30;;;;;;;0.10;0.10;;;15.40;99.90;;;;;;5056536;28;20879;-91
2022/06/22 07:05:56;;;;;;;0.10;0.10;;;15.40;99.90;;;;;;5062422;28;20235;-92
2022/06/22 07:08:31;;;;;;;0.10;0.10;;;15.40;99.90;;;;;;5063495;28;20445;-92
2022/06/22 07:11:05;;;;;;;0.10;0.10;;;15.70;99.90;;;;;;5051243;28;20191;-89
2022/06/22 07:13:34;;;;;;;0.10;0.10;;;15.80;99.90;;;;;;5050687;28;20484;-92
2022/06/22 07:16:09;;;;;;;0.10;0.10;;;15.70;99.90;;;;;;5047974;28;20429;-92
2022/06/22 07:18:41;;;;;;;0.10;0.10;;;15.60;99.90;;;;;;5058634;28;20530;-92
2022/06/22 07:21:32;;;;;;;0.10;0.10;;;15.80;99.90;;;;;;5056128;28;20453;-90
2022/06/22 07:24:16;;;;;;;0.10;0.10;;;15.80;99.90;;;;;;5038897;28;20437;-91
2022/06/22 07:27:18;;;;;;;0.10;0.10;;;16.10;99.90;;;;;;5048944;28;21002;-90
2022/06/22 07:29:53;;;;;;;0.10;0.10;;;16.20;99.90;;;;;;5042913;28;20471;-93
2022/06/22 07:32:59;;;;;;;0.10;0.10;;;16.20;99.90;;;;;;5038107;28;20441;-94
2022/06/22 07:35:43;;;;;;;0.10;0.10;;;16.10;99.90;;;;;;5046287;28;20528;-92
2022/06/22 07:38:24;;;;;;;0.10;0.10;;;16.30;99.90;;;;;;5049168;28;20964;-93
2022/06/22 07:43:34;;;;;;;0.10;0.10;;;16.40;99.90;;;;;;5043920;28;20453;-94
2022/06/22 07:46:01;;;;;;;0.10;0.10;;;16.60;99.90;;;;;;5052773;28;20468;-96
2022/06/22 07:48:31;;;;;;;0.10;0.10;;;16.80;99.90;;;;;;5051878;28;20666;-95
2022/06/22 07:51:00;;;;;;;0.10;0.10;;;16.50;99.90;;;;;;5050446;28;20442;-96
2022/06/22 07:53:50;;;;;;;0.10;0.10;;;16.30;99.90;;;;;;5037149;28;20911;-93
2022/06/22 07:56:41;;;;;;;0.10;0.10;;;16.70;99.90;;;;;;5042577;28;20847;-92
2022/06/22 07:59:18;;;;;;;0.10;0.00;;;16.80;99.90;;;;;;5046284;28;20452;-89
2022/06/22 08:01:46;;;;;;;0.10;0.10;;;16.80;99.90;;;;;;5046522;28;21288;-89
2022/06/22 08:04:27;;;;;;;0.10;0.10;;;16.90;99.90;;;;;;5034659;28;20973;-90
2022/06/22 08:07:02;;;;;;;0.10;0.10;;;17.20;99.90;;;;;;5030885;28;20483;-86
2022/06/22 08:09:44;;;;;;;0.10;0.10;;;17.30;99.90;;;;;;5045911;28;20469;-86
2022/06/22 08:12:22;;;;;;;0.10;0.10;;;17.80;99.90;;;;;;5044525;28;20480;-86
2022/06/22 08:14:52;;;;;;;0.10;0.10;;;17.80;99.90;;;;;;5047428;28;20790;-86
2022/06/22 08:17:36;;;;;;;0.10;0.10;;;18.00;99.90;;;;;;5044458;28;20445;-86
2022/06/22 08:20:03;;;;;;;0.10;0.10;;;17.80;99.90;;;;;;5052893;28;20436;-86
2022/06/22 08:22:29;;;;;;;0.10;0.10;;;18.00;99.90;;;;;;5048431;28;20515;-87
2022/06/22 08:24:56;;;;;;;0.10;0.10;;;18.20;99.90;;;;;;5048178;28;20790;-84
2022/06/22 08:27:24;;;;;;;0.10;0.10;;;18.50;99.90;;;;;;5049211;28;20231;-85
2022/06/22 08:29:52;;;;;;;0.10;0.10;;;18.40;99.90;;;;;;5049496;28;20461;-85
2022/06/22 08:32:40;;;;;;;0.10;0.10;;;18.60;99.90;;;;;;5047749;28;20543;-84
2022/06/22 08:35:09;;;;;;;0.10;0.10;;;18.60;99.90;;;;;;5045773;28;20450;-85
2022/06/22 08:37:40;;;;;;;0.10;0.10;;;18.60;99.90;;;;;;5044709;28;20443;-85
2022/06/22 08:40:21;;;;;;;0.10;0.00;;;18.80;99.90;;;;;;5050559;28;20464;-84
2022/06/22 08:43:00;;;;;;;0.10;0.10;;;19.20;99.90;;;;;;5048280;28;20437;-85
2022/06/22 08:46:01;;;;;;;0.10;0.10;;;18.80;99.90;;;;;;5040304;28;20485;-84
2022/06/22 08:48:51;;;;;;;0.10;0.10;;;19.10;99.90;;;;;;5054591;28;20956;-85
2022/06/22 08:51:35;;;;;;;0.10;0.00;;;19.20;99.90;;;;;;5041610;28;20441;-85
2022/06/22 08:54:22;;;;;;;0.10;0.00;;;19.20;99.90;;;;;;5048800;28;20460;-86
2022/06/22 08:57:13;;;;;;;0.10;0.10;;;19.10;99.90;;;;;;5041992;28;20862;-85
2022/06/22 08:59:53;;;;;;;0.10;0.10;;;18.80;99.90;;;;;;5053671;28;20522;-86
2022/06/22 09:02:43;;;;;;;0.10;0.00;;;19.30;99.90;;;;;;5048363;28;20452;-84
2022/06/22 09:05:38;;;;;;;0.10;0.10;;;19.50;99.90;;;;;;5045964;28;20527;-85
2022/06/22 09:08:09;;;;;;;0.10;0.10;;;20.00;99.90;;;;;;5041751;28;20486;-84
2022/06/22 09:10:59;;;;;;;0.10;0.00;;;19.80;99.90;;;;;;5061186;28;20452;-84
2022/06/22 09:13:42;;;;;;;0.10;0.10;;;20.10;99.90;;;;;;5046644;28;20465;-85
2022/06/22 09:16:29;;;;;;;0.10;0.10;;;19.60;99.90;;;;;;5050007;28;20441;-85
2022/06/22 09:18:58;;;;;;;0.10;0.00;;;19.60;99.90;;;;;;5062763;28;20471;-85
2022/06/22 09:21:54;;;;;;;0.10;0.00;;;19.70;99.90;;;;;;5040385;28;20522;-84
2022/06/22 09:24:21;;;;;;;0.10;0.00;;;19.80;99.90;;;;;;5046807;28;20445;-85
2022/06/22 09:27:02;;;;;;;0.10;0.00;;;20.10;99.90;;;;;;5042015;28;20989;-85
2022/06/22 09:30:26;;;;;;;0.10;0.00;;;20.10;99.90;;;;;;5032702;28;20521;-85
2022/06/22 09:33:10;;;;;;;0.10;0.00;;;20.10;99.90;;;;;;5045704;28;20445;-86
2022/06/22 09:36:09;;;;;;;0.10;0.00;;;20.00;99.90;;;;;;5048694;28;20544;-86
2022/06/22 09:38:41;;;;;;;0.10;0.10;;;20.30;99.90;;;;;;5041168;28;20806;-84
2022/06/22 09:41:44;;;;;;;0.10;0.00;;;20.30;99.90;;;;;;5054896;28;20473;-85
2022/06/22 09:44:36;;;;;;;0.10;0.00;;;20.00;99.90;;;;;;5049862;28;20481;-86
2022/06/22 09:47:23;;;;;;;0.10;0.00;;;19.80;99.90;;;;;;5050505;28;20485;-85
2022/06/22 09:50:19;;;;;;;0.10;0.00;;;19.60;99.90;;;;;;5049747;28;20454;-91
2022/06/22 09:53:00;;;;;;;0.10;0.00;;;19.50;99.90;;;;;;5036079;28;20461;-84
2022/06/22 09:58:43;;;;;;;0.10;0.10;;;19.10;99.90;;;;;;5043205;28;20448;-88
2022/06/22 10:01:27;;;;;;;0.10;0.00;;;19.10;99.90;;;;;;5053398;28;20472;-85
2022/06/22 10:04:14;;;;;;;0.10;0.10;;;19.00;99.90;;;;;;5070155;28;20440;-84
2022/06/22 10:07:08;;;;;;;0.10;0.10;;;19.20;99.90;;;;;;5044252;28;20529;-82
2022/06/22 10:10:00;;;;;;;0.10;0.00;;;19.20;99.90;;;;;;5041733;28;20504;-87
2022/06/22 10:12:43;;;;;;;0.10;0.00;;;19.10;99.90;;;;;;5035412;28;20908;-86
2022/06/22 10:15:34;;;;;;;0.10;0.00;;;19.30;99.90;;;;;;5041927;28;20489;-86
2022/06/22 10:18:31;;;;;;;0.10;0.10;;;19.30;99.90;;;;;;5044578;28;20500;-86
2022/06/22 10:21:18;;;;;;;0.10;0.00;;;19.20;99.90;;;;;;5038296;28;20438;-86
2022/06/22 10:24:03;;;;;;;0.10;0.00;;;19.30;99.90;;;;;;5032336;28;20528;-88
2022/06/22 10:26:54;;;;;;;0.10;0.10;;;19.20;99.90;;;;;;5049471;28;20470;-86
2022/06/22 10:29:22;;;;;;;0.10;0.10;;;18.90;99.90;;;;;;5076023;28;20476;-87
2022/06/22 10:32:29;;;;;;;0.10;0.00;;;18.80;99.90;;;;;;5058739;28;20451;-86
2022/06/22 10:35:13;;;;;;;0.10;0.10;;;19.00;99.90;;;;;;5026123;28;20433;-87
2022/06/22 10:38:07;;;;;;;0.10;0.10;;;19.10;99.90;;;;;;5044467;28;20465;-86
2022/06/22 10:47:24;;;;;;;0.10;0.10;;;18.70;99.90;;;;;;5045822;28;20492;-86
2022/06/22 10:50:00;;;;;;;0.10;0.00;;;18.70;99.90;;;;;;5042456;28;20539;-87
2022/06/22 10:52:50;;;;;;;0.10;0.00;;;18.80;99.90;;;;;;5041300;28;20519;-85
2022/06/22 10:55:34;;;;;;;0.10;0.10;;;19.00;99.90;;;;;;5051039;28;20441;-94
2022/06/22 10:58:33;;;;;;;0.10;0.10;;;18.80;99.90;;;;;;5046956;28;20452;-96
2022/06/22 11:01:20;;;;;;;0.10;0.00;;;19.10;99.90;;;;;;5072700;28;20481;-96
2022/06/22 11:04:07;;;;;;;0.10;0.00;;;19.30;99.90;;;;;;5042567;28;20430;-96
2022/06/22 11:07:02;;;;;;;0.10;0.00;;;19.60;99.90;;;;;;5044582;28;20971;-96
2022/06/22 11:09:47;;;;;;;0.10;0.10;;;19.10;99.90;;;;;;5054854;22;20502;-96
2022/06/22 11:12:53;;;;;;;0.10;0.10;;;19.00;99.90;;;;;;5032790;28;20526;-95
2022/06/22 11:15:56;;;;;;;0.10;0.00;;;19.40;99.90;;;;;;4991002;28;20435;-93
2022/06/22 11:18:51;;;;;;;0.10;0.00;;;19.40;99.90;;;;;;5028905;28;20441;-95
2022/06/22 11:21:34;;;;;;;0.10;0.10;;;19.50;99.90;;;;;;5025047;28;20438;-94
2022/06/22 11:24:15;;;;;;;0.10;0.10;;;19.40;99.90;;;;;;5025636;28;20454;-96
2022/06/22 11:33:49;;;;;;;0.10;0.00;;;20.10;99.90;;;;;;5029976;28;20528;-95
2022/06/22 11:36:23;;;;;;;0.10;0.00;;;20.10;99.90;;;;;;5031473;28;20513;-95
2022/06/22 11:39:10;;;;;;;0.10;0.00;;;20.30;99.90;;;;;;5033558;28;20442;-94
2022/06/22 11:41:46;;;;;;;0.10;0.00;;;20.20;99.90;;;;;;5030766;28;20961;-96
2022/06/22 11:44:24;;;;;;;0.10;0.00;;;20.30;99.90;;;;;;5033255;28;20434;-96
2022/06/22 11:46:54;;;;;;;0.10;0.00;;;20.20;99.90;;;;;;5045349;23;20508;-96
2022/06/22 11:50:02;;;;;;;0.10;0.00;;;20.50;99.90;;;;;;5027522;28;20446;-96
2022/06/22 11:52:49;;;;;;;0.10;0.00;;;20.70;99.90;;;;;;5026608;28;20921;-96
2022/06/22 11:55:21;;;;;;;0.10;0.00;;;20.90;99.90;;;;;;5036120;28;20886;-96
2022/06/22 11:58:04;;;;;;;0.10;0.00;;;20.80;99.90;;;;;;5036744;28;20434;-96
2022/06/22 12:00:50;;;;;;;0.10;0.00;;;21.20;99.90;;;;;;5042941;28;20434;-96
2022/06/22 12:03:35;;;;;;;0.10;0.00;;;20.40;99.90;;;;;;5043376;28;20456;-95
2022/06/22 12:06:16;;;;;;;0.10;0.00;;;20.90;99.90;;;;;;5042338;28;20450;-96
2022/06/22 12:08:54;;;;;;;0.10;0.00;;;21.20;99.90;;;;;;5064358;22;20506;-96
2022/06/22 12:11:59;;;;;;;0.10;0.00;;;21.50;99.90;;;;;;5038382;28;20430;-96
2022/06/22 12:17:42;;;;;;;0.10;0.00;;;21.50;99.90;;;;;;5044011;28;20497;-96
2022/06/22 12:20:51;;;;;;;0.10;0.00;;;21.40;99.90;;;;;;5045148;28;20529;-96
2022/06/22 12:23:37;;;;;;;0.10;0.00;;;21.10;99.90;;;;;;5007611;28;20462;-96
2022/06/22 12:26:35;;;;;;;0.10;0.00;;;21.20;99.90;;;;;;5007187;28;20916;-96
2022/06/22 12:29:38;;;;;;;0.10;0.00;;;22.00;99.90;;;;;;5036446;28;20462;-96
2022/06/22 12:32:13;;;;;;;0.10;0.00;;;22.40;99.90;;;;;;5033380;28;20450;-94
2022/06/22 12:35:27;;;;;;;0.10;0.00;;;22.40;99.90;;;;;;5037833;28;20437;-96
2022/06/22 12:38:00;;;;;;;0.10;0.00;;;21.70;99.90;;;;;;5017253;28;20518;-96
2022/06/22 12:40:49;;;;;;;0.10;0.00;;;21.10;99.90;;;;;;5029763;28;20442;-96
2022/06/22 12:43:33;;;;;;;0.10;0.00;;;21.20;99.90;;;;;;5037816;28;20792;-96
2022/06/22 12:46:13;;;;;;;0.10;0.00;;;21.40;99.90;;;;;;5033911;28;20481;-96
2022/06/22 12:49:06;;;;;;;0.10;0.00;;;21.70;99.90;;;;;;5033474;28;20537;-95
2022/06/22 12:51:46;;;;;;;0.10;0.00;;;21.30;99.90;;;;;;5022092;28;20461;-96
2022/06/22 12:54:38;;;;;;;0.10;0.00;;;21.30;99.90;;;;;;5042090;28;20446;-96
2022/06/22 12:57:16;;;;;;;0.10;0.00;;;21.10;99.90;;;;;;5038364;28;20475;-96
2022/06/22 13:00:00;;;;;;;0.10;0.00;;;21.00;99.90;;;;;;5050984;28;20422;-95
2022/06/22 13:02:30;;;;;;;0.10;0.00;;;21.20;99.90;;;;;;5047748;28;20442;-96
2022/06/22 13:10:36;;;;;;;0.10;0.00;;;21.20;99.90;;;;;;5058505;23;20478;-96
2022/06/22 13:13:25;;;;;;;0.10;0.00;;;21.60;99.90;;;;;;5162624;22;20557;-96
2022/06/22 14:31:30;;;;;;;0.00;0.00;;;22.70;99.90;;;;;;5126850;27;20583;-96
2022/06/22 14:34:27;;;;;;;0.00;0.00;;;23.60;99.90;;;;;;5109614;28;20518;-96
2022/06/22 14:37:08;;;;;;;0.00;0.00;;;24.10;99.90;;;;;;5108258;28;20445;-95
2022/06/22 14:39:46;;;;;;;0.00;0.00;;;23.20;99.90;;;;;;5112044;28;20442;-96
2022/06/22 14:42:23;;;;;;;0.00;0.00;;;22.50;99.90;;;;;;5104311;28;20446;-96
2022/06/22 14:45:00;;;;;;;0.00;0.00;;;22.70;99.90;;;;;;5093567;28;20425;-96
2022/06/22 14:47:39;;;;;;;0.00;0.00;;;22.40;99.90;;;;;;5103362;28;20447;-96
2022/06/22 14:50:14;;;;;;;0.00;0.00;;;22.30;99.90;;;;;;5108365;28;20573;-96
2022/06/22 14:52:52;;;;;;;0.00;0.00;;;22.70;99.90;;;;;;5106494;28;21075;-96
2022/06/22 14:55:34;;;;;;;0.10;0.00;;;22.70;99.90;;;;;;5109300;28;20445;-96
2022/06/22 14:58:17;;;;;;;0.10;0.00;;;22.60;99.90;;;;;;5109794;28;20442;-96
2022/06/22 15:00:53;;;;;;;0.10;0.00;;;22.30;99.90;;;;;;5096513;28;20533;-96
2022/06/22 15:03:33;;;;;;;0.10;0.00;;;22.40;99.90;;;;;;5089290;28;20998;-96
2022/06/22 15:06:22;;;;;;;0.10;0.00;;;22.40;99.90;;;;;;5114324;28;20446;-96
2022/06/22 15:09:05;;;;;;;0.10;0.10;;;23.10;99.90;;;;;;5103591;28;20430;-96
2022/06/22 15:14:34;;;;;;;0.10;0.00;;;22.50;99.90;;;;;;5137162;22;20546;-96
2022/06/22 15:17:10;;;;;;;0.10;0.00;;;22.60;99.90;;;;;;5134136;27;20445;-96
2022/06/22 15:19:39;;;;;;;0.10;0.00;;;22.60;99.90;;;;;;5125558;27;20455;-95
2022/06/22 15:22:15;;;;;;;0.10;0.00;;;22.90;99.90;;;;;;5121722;27;20457;-95
2022/06/22 15:24:58;;;;;;;0.10;0.00;;;23.10;99.90;;;;;;5124373;28;20449;-96
2022/06/22 15:27:29;;;;;;;0.10;0.00;;;22.80;99.90;;;;;;5122983;27;20441;-96
2022/06/22 15:30:00;;;;;;;0.10;0.00;;;23.00;99.90;;;;;;5126697;27;20545;-95
2022/06/22 15:32:33;;;;;;;0.00;0.00;;;23.20;99.90;;;;;;5131869;27;20445;-96
2022/06/22 15:35:05;;;;;;;0.00;0.00;;;22.60;99.90;;;;;;5137046;28;20567;-96
2022/06/22 15:37:44;;;;;;;0.00;0.00;;;22.10;99.90;;;;;;5147727;22;20441;-96
2022/06/22 15:40:25;;;;;;;0.00;0.00;;;21.60;99.90;;;;;;5081563;28;20437;-96
2022/06/22 15:43:29;;;;;;;0.00;0.00;;;21.40;99.90;;;;;;5093037;22;20490;-96
2022/06/22 15:46:18;;;;;;;0.00;0.00;;;21.50;99.90;;;;;;5097505;22;20915;-96